Latest Weather Observations for Mullion

IDN60901

Issued at 4:11 am EDT Tuesday 21 January 2020 (issued every 10 minutes, with the page automatically refreshed every 10 minutes)

About weather observations | Map of Canberra area stations | Latest observations for Canberra area | Other Formats
Station Details ID: 250070 Name: MULLION (PCS) Lat: -35.11 Lon: 148.85 Height: 750.0 m

Portable automatic weather stations (PAWS) are operated by other organisations, such as Fire and Emergency Services, and are included here by agreement. Portable stations may be deployed to a location for a short period and their location may be subject to change without notice. Wind observations from these stations are provided from heights of either three (3) or ten (10) metres above ground level (AGL).

Data from the previous 72 hours. | See also: Recent months for locations in Aust Capital Territory
Date/Time
EDT
Temp
°C
App
Temp
°C
Dew
Point
°C
Rel
Hum
%
Delta-T
°C
Wind Press
QNH
hPa
Press
MSL
hPa
Rain since
9am
mm
Dir  Spd
km/h
Gust
km/h
Spd
kts
Gust
kts
21/04:00am 13.3 6.6 11.0 86 1.3 WNW 37 43 20 23 1006.6 - 7.6
21/03:50am 13.4 5.5 10.8 84 1.4 WNW 43 44 23 24 1006.4 - 7.6
21/03:40am 13.4 6.6 10.6 83 1.5 WNW 37 41 20 22 1006.4 - 7.6
21/03:30am 13.5 7.6 10.5 82 1.6 WNW 32 37 17 20 1006.7 - 7.6
21/03:20am 13.6 8.8 10.4 81 1.7 WNW 26 30 14 16 1007.0 - 7.6
21/03:10am 13.8 7.8 10.2 79 1.9 WNW 32 35 17 19 1007.0 - 7.6
21/03:00am 13.9 7.7 10.2 78 2.0 WNW 33 37 18 20 1007.0 - 7.6
21/02:50am 14.0 7.8 10.1 77 2.1 WNW 33 37 18 20 1007.1 - 7.6
21/02:40am 14.2 7.6 9.9 75 2.3 WNW 35 39 19 21 1007.1 - 7.6
21/02:30am 14.4 7.3 9.7 73 2.5 WNW 37 41 20 22 1007.1 - 7.6
21/02:20am 14.5 8.8 9.9 74 2.5 WNW 30 32 16 17 1007.2 - 7.6
21/02:10am 14.7 8.5 10.0 73 2.5 WNW 33 37 18 20 1007.3 - 7.6
21/02:00am 14.9 7.8 9.6 70 2.8 WNW 37 41 20 22 1007.1 - 7.6
21/01:50am 14.9 8.5 9.5 70 2.9 WNW 33 39 18 21 1007.1 - 7.6
21/01:40am 14.9 9.2 9.7 71 2.8 WNW 30 33 16 18 1007.2 - 7.6
21/01:30am 15.0 9.6 9.4 69 3.0 NW 28 28 15 15 1007.3 - 7.6
21/01:20am 15.1 9.7 9.4 69 3.1 NW 28 30 15 16 1007.2 - 7.6
21/01:10am 15.1 10.1 9.5 69 3.0 NW 26 28 14 15 1007.2 - 7.6
21/01:00am 15.1 9.8 9.7 70 2.9 WNW 28 32 15 17 1007.2 - 7.6
21/12:50am 15.2 9.9 9.7 69 3.0 WNW 28 30 15 16 1007.3 - 7.6
21/12:40am 15.2 10.4 10.2 72 2.7 NW 26 30 14 16 1007.3 - 7.6
21/12:30am 15.4 10.5 10.1 70 2.9 NW 26 30 14 16 1007.3 - 7.6
21/12:20am 15.4 10.9 9.9 70 3.0 NW 24 26 13 14 1007.4 - 7.6
21/12:10am 15.6 11.5 10.0 69 3.0 NW 22 26 12 14 1007.4 - 7.6
21/12:00am 15.7 11.2 10.0 69 3.1 NNW 24 26 13 14 1007.4 - 7.6
 
Date/Time
EDT
Temp
°C
App
Temp
°C
Dew
Point
°C
Rel
Hum
%
Delta-T
°C
Wind Press
QNH
hPa
Press
MSL
hPa
Rain since
9am
mm
Dir  Spd
km/h
Gust
km/h
Spd
kts
Gust
kts
20/11:50pm 15.6 12.4 9.9 69 3.1 NNW 17 20 9 11 1007.3 - 7.6
20/11:40pm 15.6 13.6 10.0 69 3.0 WNW 11 15 6 8 1007.3 - 7.6
20/11:30pm 15.6 12.5 10.2 70 2.9 W 17 28 9 15 1007.4 - 7.6
20/11:20pm 15.8 11.4 10.4 70 3.0 W 24 37 13 20 1007.3 - 7.6
20/11:10pm 15.6 8.6 10.1 70 3.0 W 37 46 20 25 1007.6 - 7.6
20/11:00pm 15.6 6.3 10.5 71 2.8 WSW 50 59 27 32 1007.1 - 7.6
20/10:50pm 15.9 9.0 10.4 70 3.0 W 37 46 20 25 1007.7 - 7.6
20/10:40pm 16.1 9.7 10.8 71 2.9 WNW 35 46 19 25 1008.2 - 7.6
20/10:30pm 16.4 11.8 10.9 70 3.1 WNW 26 32 14 17 1008.1 - 7.6
20/10:20pm 16.5 12.6 10.9 69 3.1 WNW 22 24 12 13 1007.8 - 7.6
20/10:10pm 16.6 13.0 10.6 67 3.3 WNW 20 30 11 16 1007.9 - 7.6
20/10:00pm 16.8 13.1 10.2 65 3.6 W 20 24 11 13 1007.8 - 7.6
20/09:50pm 16.8 11.9 10.1 64 3.7 W 26 30 14 16 1007.6 - 7.6
20/09:40pm 16.9 12.0 9.9 63 3.8 W 26 30 14 16 1007.5 - 7.6
20/09:30pm 17.0 12.0 9.6 61 4.0 WNW 26 28 14 15 1007.6 - 7.6
20/09:20pm 17.2 12.2 9.5 60 4.2 WNW 26 30 14 16 1007.4 - 7.6
20/09:10pm 17.4 11.1 9.1 58 4.5 W 32 35 17 19 1007.1 - 7.6
20/09:00pm 17.5 12.0 9.0 57 4.6 W 28 32 15 17 1007.0 - 7.6
20/08:50pm 17.8 11.9 9.1 56 4.7 WNW 30 35 16 19 1006.8 - 7.6
20/08:40pm 18.0 12.9 9.2 56 4.8 W 26 32 14 17 1006.6 - 7.6
20/08:30pm 18.3 11.1 9.0 54 5.0 WNW 37 43 20 23 1006.7 - 7.6
20/08:20pm 18.5 12.3 9.2 54 5.1 WNW 32 35 17 19 1006.5 - 7.6
20/08:10pm 18.8 11.6 9.1 53 5.3 W 37 41 20 22 1006.1 - 7.6
20/08:00pm 19.0 10.6 9.1 52 5.4 WNW 43 50 23 27 1006.1 - 7.6
20/07:50pm 19.4 10.8 8.8 50 5.8 WNW 44 56 24 30 1005.9 - 7.6
20/07:40pm 19.7 11.4 9.4 51 5.7 W 43 54 23 29 1005.7 - 7.6
20/07:30pm 20.1 13.1 9.9 52 5.7 WNW 37 44 20 24 1005.9 - 7.6
20/07:20pm 19.9 11.6 10.2 53 5.4 WNW 44 52 24 28 1005.6 - 7.6
20/07:10pm 20.1 12.2 10.7 54 5.3 WNW 43 57 23 31 1005.3 - 7.6
20/07:00pm 20.3 14.0 11.1 55 5.2 WNW 35 41 19 22 1005.4 - 7.6
20/06:50pm 20.3 13.9 10.7 54 5.4 WNW 35 41 19 22 1005.2 - 7.6
20/06:40pm 20.8 14.4 10.8 52 5.7 WNW 35 37 19 20 1005.1 - 7.6
20/06:30pm 20.6 14.7 11.0 54 5.5 NW 33 39 18 21 1005.1 - 7.6
20/06:20pm 20.7 14.8 11.2 54 5.4 WNW 33 43 18 23 1005.2 - 7.6
20/06:10pm 20.9 14.9 10.7 52 5.8 WNW 33 39 18 21 1004.9 - 7.6
20/06:00pm 20.4 12.2 10.5 53 5.6 WNW 44 52 24 28 1005.0 - 7.6
20/05:50pm 20.7 12.5 10.5 52 5.8 NW 44 50 24 27 1004.6 - 7.6
20/05:40pm 20.7 11.6 9.7 49 6.1 NW 48 54 26 29 1004.7 - 7.6
20/05:30pm 20.8 11.6 9.6 48 6.2 NW 48 52 26 28 1004.3 - 7.6
20/05:20pm 21.0 13.5 11.0 52 5.7 NW 41 50 22 27 1004.6 - 7.6
20/05:10pm 21.0 13.6 9.8 48 6.2 NW 39 46 21 25 1004.5 - 7.6
20/05:00pm 21.1 14.8 11.1 52 5.7 NW 35 41 19 22 1004.4 - 7.6
20/04:50pm 21.1 15.0 10.3 50 6.1 NW 33 43 18 23 1004.5 - 7.6
20/04:40pm 20.9 14.1 9.2 47 6.5 NW 35 43 19 23 1004.6 - 7.6
20/04:30pm 21.1 14.0 9.4 47 6.5 NW 37 39 20 21 1004.2 - 7.6
20/04:20pm 20.9 13.3 10.6 51 5.8 NW 41 46 22 25 1004.3 - 7.6
20/04:10pm 20.8 13.0 11.2 54 5.5 NW 43 48 23 26 1004.4 - 7.6
20/04:00pm 20.7 13.9 10.6 52 5.7 NW 37 46 20 25 1004.4 - 7.6
20/03:50pm 20.8 13.8 11.1 53 5.5 NW 39 44 21 24 1004.1 - 7.6
20/03:40pm 21.1 15.6 10.6 51 5.9 WNW 30 35 16 19 1004.5 - 7.6
20/03:30pm 20.8 16.1 10.6 52 5.8 NW 26 33 14 18 1004.4 - 7.6
20/03:20pm 20.6 17.0 9.7 49 6.1 NW 19 26 10 14 1004.4 - 7.6
20/03:10pm 20.0 14.9 9.1 49 6.0 W 26 33 14 18 1004.5 - 7.6
20/03:00pm 19.9 14.7 8.9 49 6.0 WNW 26 30 14 16 1004.8 - 7.6
20/02:50pm 20.2 14.6 10.3 53 5.5 WNW 30 37 16 20 1005.0 - 7.6
20/02:40pm 20.1 14.6 9.0 48 6.1 W 28 35 15 19 1005.2 - 7.6
20/02:30pm 19.3 10.8 9.2 52 5.5 WSW 44 54 24 29 1004.8 - 7.6
20/02:20pm 18.9 12.3 11.3 61 4.3 W 37 52 20 28 1004.6 - 7.6
20/02:10pm 17.9 10.7 10.5 62 4.1 WSW 39 44 21 24 1004.8 - 7.6
20/02:00pm 17.3 12.8 11.4 68 3.3 WSW 26 35 14 19 1004.3 - 7.6
20/01:50pm 16.9 9.4 9.6 62 4.0 W 39 46 21 25 1004.7 - 7.6
20/01:40pm 16.2 4.4 9.1 63 3.8 WSW 61 76 33 41 1006.3 - 7.6
20/01:30pm 15.4 2.1 9.9 70 3.0 WSW 70 83 38 45 1003.9 - 7.6
20/01:20pm 14.6 -3.6 10.1 74 2.4 WSW 96 106 52 57 1002.8 - 7.6
20/01:10pm 13.1 -6.4 10.7 85 1.3 WSW 104 111 56 60 1002.3 - 7.6
20/01:00pm 13.8 -3.2 12.0 89 1.0 W 93 117 50 63 1003.9 - 7.4
20/12:50pm 15.8 4.8 13.1 84 1.6 W 63 83 34 45 1005.2 - 6.4
20/12:40pm 16.0 9.9 13.1 83 1.7 W 37 46 20 25 1004.5 - 6.4
20/12:30pm 16.1 8.7 14.2 88 1.1 WSW 46 57 25 31 1004.1 - 6.4
20/12:20pm 16.8 7.6 14.6 87 1.3 W 56 76 30 41 1004.2 - 6.4
20/12:10pm 21.8 21.8 17.3 75 2.9 NNW 13 24 7 13 1004.0 - 1.2
20/12:00pm 23.3 22.5 17.0 67 4.0 ENE 17 22 9 12 1003.8 - 0.0
20/11:50am 23.5 23.3 16.6 65 4.4 NE 13 19 7 10 1004.4 - 0.0
20/11:40am 22.7 22.5 16.7 69 3.8 E 13 19 7 10 1004.8 - 0.0
20/11:30am 22.8 22.6 15.8 64 4.4 E 11 20 6 11 1005.4 - 0.0
20/11:20am 22.6 22.0 15.7 65 4.3 ESE 13 24 7 13 1005.5 - 0.0
20/11:10am 22.2 21.0 16.0 68 3.9 E 17 19 9 10 1005.9 - 0.0
20/11:00am 21.2 19.3 15.7 71 3.4 ESE 20 24 11 13 1005.9 - 0.0
20/10:50am 20.8 18.9 15.3 71 3.4 SE 19 22 10 12 1006.1 - 0.0
20/10:40am 20.5 19.0 16.3 77 2.6 ESE 19 22 10 12 1006.2 - 0.0
20/10:30am 20.3 18.8 16.4 78 2.4 SE 19 24 10 13 1006.3 - 0.0
20/10:20am 19.9 18.0 15.7 77 2.6 SE 20 24 11 13 1006.5 - 0.0
20/10:10am 20.0 17.6 16.5 80 2.2 SE 24 28 13 15 1006.4 - 0.0
20/10:00am 19.8 16.9 16.2 80 2.2 SE 26 28 14 15 1006.5 - 6.0
20/09:50am 19.4 16.2 16.2 82 2.0 ESE 28 32 15 17 1006.2 - 6.0
20/09:40am 18.9 16.8 16.2 84 1.7 SE 22 28 12 15 1006.6 - 6.0
20/09:30am 18.6 16.2 15.5 82 1.9 SE 22 26 12 14 1006.9 - 6.0
20/09:20am 18.6 16.3 15.8 84 1.7 SE 22 26 12 14 1006.7 - 6.0
20/09:10am 18.6 15.9 15.7 83 1.8 SE 24 26 13 14 1006.8 - 6.0
20/09:00am 18.5 15.1 15.9 85 1.6 SE 28 30 15 16 1006.9 - 6.0
20/08:50am 18.2 14.8 15.7 85 1.5 SE 28 32 15 17 1006.8 - 6.0
20/08:40am 17.7 13.7 16.1 90 1.0 SE 32 33 17 18 1006.6 - 6.0
20/08:30am 17.8 14.2 16.2 90 1.0 SE 30 32 16 17 1006.7 - 6.0
20/08:20am 17.4 14.2 16.2 93 0.7 SE 28 30 15 16 1006.7 - 6.0
20/08:10am 17.4 14.6 16.3 93 0.7 SE 26 28 14 15 1006.8 - 6.0
20/08:00am 17.4 14.6 16.4 94 0.6 SE 26 28 14 15 1006.7 - 6.0
20/07:50am 17.3 15.3 16.5 95 0.5 SE 22 26 12 14 1006.6 - 6.0
20/07:40am 17.2 14.8 16.3 94 0.6 SSE 24 28 13 15 1006.8 - 6.0
20/07:30am 16.8 13.8 15.8 94 0.6 SSE 26 28 14 15 1006.5 - 6.0
20/07:20am 16.5 13.8 15.5 94 0.6 SSE 24 26 13 14 1006.6 - 6.0
20/07:10am 16.2 13.8 15.4 95 0.5 SSE 22 24 12 13 1006.6 - 6.0
20/07:00am 16.0 13.2 15.3 96 0.4 SSE 24 26 13 14 1006.5 - 6.0
20/06:50am 16.0 13.6 15.3 96 0.4 SSE 22 24 12 13 1006.7 - 6.0
20/06:40am 16.0 13.6 15.3 96 0.4 SSE 22 22 12 12 1006.6 - 6.0
20/06:30am 15.8 13.7 15.3 97 0.3 SSE 20 22 11 12 1006.6 - 6.0
20/06:20am 16.0 13.5 15.2 95 0.5 SE 22 22 12 12 1006.5 - 6.0
20/06:10am 16.2 14.1 15.2 94 0.6 SE 20 24 11 13 1006.4 - 6.0
20/06:00am 16.3 14.4 15.3 94 0.6 SE 19 20 10 11 1006.6 - 6.0
20/05:50am 16.3 14.4 15.2 93 0.7 SE 19 20 10 11 1006.6 - 6.0
20/05:40am 16.3 14.2 15.3 94 0.6 SE 20 22 11 12 1006.5 - 6.0
20/05:30am 16.3 13.1 15.2 93 0.7 SSE 26 26 14 14 1006.4 - 6.0
20/05:20am 16.4 13.5 15.2 93 0.7 SSE 24 28 13 15 1006.2 - 6.0
20/05:10am 16.2 13.6 15.0 93 0.7 SE 22 24 12 13 1006.3 - 6.0
20/05:00am 16.0 13.1 15.0 94 0.6 SSE 24 26 13 14 1006.1 - 6.0
20/04:50am 16.1 12.4 15.1 94 0.6 SSE 28 28 15 15 1005.9 - 6.0
20/04:40am 16.2 12.9 15.0 93 0.7 SSE 26 28 14 15 1005.8 - 6.0
20/04:30am 16.0 13.1 15.0 94 0.6 SSE 24 24 13 13 1006.0 - 6.0
20/04:20am 16.0 13.4 14.9 93 0.7 SSE 22 24 12 13 1006.0 - 6.0
20/04:10am 16.1 13.1 14.8 92 0.8 SSE 24 26 13 14 1005.8 - 6.0
20/04:00am 16.1 13.1 14.8 92 0.8 SSE 24 26 13 14 1006.0 - 6.0
20/03:50am 16.1 13.1 14.8 92 0.8 SSE 24 26 13 14 1006.1 - 6.0
20/03:40am 16.3 13.3 14.9 91 0.8 SSE 24 24 13 13 1006.1 - 6.0
20/03:30am 16.4 13.4 14.9 91 0.9 SSE 24 26 13 14 1006.2 - 6.0
20/03:20am 16.3 13.3 14.7 90 1.0 SSE 24 26 13 14 1006.3 - 6.0
20/03:10am 16.2 13.3 15.0 93 0.7 SSE 24 26 13 14 1006.4 - 6.0
20/03:00am 16.3 13.3 14.9 91 0.8 SE 24 26 13 14 1006.5 - 6.0
20/02:50am 16.5 13.5 14.8 90 1.0 SSE 24 26 13 14 1006.5 - 6.0
20/02:40am 16.4 13.4 14.8 90 1.0 SSE 24 26 13 14 1006.6 - 6.0
20/02:30am 16.4 13.0 14.8 90 1.0 SE 26 26 14 14 1006.7 - 6.0
20/02:20am 16.3 13.7 14.9 91 0.8 SE 22 24 12 13 1006.8 - 6.0
20/02:10am 16.4 13.8 15.0 91 0.8 ESE 22 24 12 13 1007.0 - 6.0
20/02:00am 16.3 14.1 15.0 92 0.8 ESE 20 24 11 13 1006.9 - 6.0
20/01:50am 16.5 14.7 15.5 94 0.6 ESE 19 19 10 10 1007.0 - 6.0
20/01:40am 16.7 15.0 14.8 88 1.1 SSE 17 20 9 11 1007.1 - 6.0
20/01:30am 16.8 14.2 14.8 88 1.2 SSE 22 24 12 13 1007.0 - 6.0
20/01:20am 16.9 14.2 14.6 86 1.4 SSE 22 24 12 13 1007.0 - 6.0
20/01:10am 16.7 13.7 14.7 88 1.2 SSE 24 26 13 14 1007.0 - 6.0
20/01:00am 16.6 13.3 15.0 90 1.0 SSE 26 28 14 15 1006.9 - 6.0
20/12:50am 16.7 13.8 15.2 91 0.9 SSE 24 26 13 14 1007.0 - 6.0
20/12:40am 16.6 14.2 15.4 93 0.7 SSE 22 24 12 13 1007.5 - 6.0
20/12:30am 16.5 13.4 15.5 94 0.6 SSE 26 28 14 15 1007.6 - 6.0
20/12:20am 16.6 13.9 15.6 94 0.6 SSE 24 26 13 14 1007.6 - 6.0
20/12:10am 16.6 14.5 15.2 91 0.8 S 20 22 11 12 1008.1 - 6.0
20/12:00am 16.6 14.7 15.8 95 0.5 SSE 20 22 11 12 1008.1 - 6.0
 
Date/Time
EDT
Temp
°C
App
Temp
°C
Dew
Point
°C
Rel
Hum
%
Delta-T
°C
Wind Press
QNH
hPa
Press
MSL
hPa
Rain since
9am
mm
Dir  Spd
km/h
Gust
km/h
Spd
kts
Gust
kts
19/11:50pm 16.7 15.0 15.8 94 0.5 SSE 19 19 10 10 1008.3 - 6.0
19/11:40pm 16.9 16.1 16.1 95 0.5 SSE 15 17 8 9 1008.8 - 6.0
19/11:30pm 17.5 17.7 15.7 89 1.1 SW 9 11 5 6 1009.3 - 5.8
19/11:20pm 17.3 15.8 15.3 88 1.2 W 17 22 9 12 1009.6 - 5.8
19/11:10pm 17.1 14.2 15.2 88 1.1 W 24 26 13 14 1009.8 - 5.6
19/11:00pm 17.0 13.9 15.5 91 0.9 WSW 26 32 14 17 1009.9 - 5.2
19/10:50pm 16.7 12.4 15.4 92 0.8 W 32 35 17 19 1009.9 - 4.2
19/10:40pm 16.6 11.5 15.8 95 0.5 W 37 41 20 22 1009.8 - 3.4
19/10:30pm 16.8 12.5 15.8 94 0.6 W 33 37 18 20 1010.1 - 2.4
19/10:20pm 17.3 13.2 15.9 91 0.9 W 32 35 17 19 1010.3 - 1.4
19/10:10pm 19.0 16.1 16.1 83 1.8 NNW 26 35 14 19 1010.2 - 1.0
19/10:00pm 21.0 17.2 14.6 67 3.9 ENE 28 30 15 16 1009.6 - 0.0
19/09:50pm 21.5 17.4 13.7 61 4.7 NE 28 33 15 18 1009.5 - 0.0
19/09:40pm 21.6 17.5 13.9 61 4.6 ENE 28 33 15 18 1009.3 - 0.0
19/09:30pm 21.7 16.7 13.9 61 4.7 ENE 33 37 18 20 1008.6 - 0.0
19/09:20pm 21.9 15.4 13.9 60 4.8 ENE 41 44 22 24 1007.8 - 0.0
19/09:10pm 22.1 15.5 13.8 59 5.0 ENE 41 44 22 24 1007.2 - 0.0
19/09:00pm 22.3 15.7 13.7 58 5.2 ENE 41 46 22 25 1007.1 - 0.0
19/08:50pm 22.7 17.2 13.6 56 5.5 ENE 35 43 19 23 1007.0 - 0.0
19/08:40pm 23.0 18.0 13.3 54 5.8 ENE 32 37 17 20 1007.3 - 0.0
19/08:30pm 23.2 17.6 13.4 54 5.9 ENE 35 37 19 20 1007.2 - 0.0
19/08:20pm 23.4 17.5 13.6 54 5.9 ENE 37 43 20 23 1006.5 - 0.0
19/08:10pm 23.6 18.0 13.4 52 6.1 ENE 35 39 19 21 1006.7 - 0.0
19/08:00pm 23.9 18.7 13.4 51 6.3 ENE 33 41 18 22 1006.1 - 0.0
19/07:50pm 24.1 18.6 13.5 51 6.4 E 35 41 19 22 1006.3 - 0.0
19/07:40pm 24.3 18.4 13.5 51 6.5 E 37 43 20 23 1006.1 - 0.0
19/07:30pm 24.5 18.1 13.3 49 6.7 ENE 39 41 21 22 1005.9 - 0.0
19/07:20pm 24.6 17.5 13.4 49 6.8 ENE 43 46 23 25 1005.6 - 0.0
19/07:10pm 24.9 17.8 13.5 49 6.9 ENE 43 46 23 25 1005.5 - 0.0
19/07:00pm 25.0 16.5 13.3 48 7.1 E 50 54 27 29 1005.1 - 0.0
19/06:50pm 25.5 17.5 13.4 47 7.3 E 48 56 26 30 1005.0 - 0.0
19/06:40pm 26.1 19.1 12.4 42 8.2 E 41 44 22 24 1005.3 - 0.0
19/06:30pm 26.3 19.3 12.5 42 8.3 E 41 43 22 23 1005.0 - 0.0
19/06:20pm 26.5 18.9 11.9 40 8.7 E 43 46 23 25 1004.6 - 0.0
19/06:10pm 27.0 19.1 11.6 38 9.1 E 44 50 24 27 1004.4 - 0.0
19/06:00pm 27.8 21.7 10.4 33 10.1 E 33 43 18 23 1004.8 - 0.0
19/05:50pm 27.4 20.4 9.8 33 10.1 E 37 41 20 22 1004.9 - 0.0
19/05:40pm 27.8 20.8 9.9 32 10.3 E 37 43 20 23 1004.7 - 0.0
19/05:30pm 27.5 22.0 10.4 34 9.9 E 30 35 16 19 1005.1 - 0.0
19/05:20pm 27.9 20.6 10.1 33 10.3 E 39 43 21 23 1004.8 - 0.0
19/05:10pm 28.2 23.3 9.8 31 10.6 E 26 35 14 19 1005.5 - 0.0
19/05:00pm 27.7 23.0 9.3 31 10.5 E 24 28 13 15 1005.7 - 0.0
19/04:50pm 27.7 22.6 10.6 34 10.0 E 28 33 15 18 1005.8 - 0.0
19/04:40pm 28.3 22.2 10.6 33 10.4 E 33 41 18 22 1005.7 - 0.0
19/04:30pm 28.0 23.1 9.9 32 10.5 E 26 37 14 20 1005.8 - 0.0
19/04:20pm 28.4 23.4 11.0 34 10.3 E 28 33 15 18 1005.9 - 0.0
19/04:10pm 28.9 24.9 9.1 29 11.3 E 20 32 11 17 1005.9 - 0.0
19/04:00pm 28.1 24.1 10.5 33 10.3 E 22 33 12 18 1006.3 - 0.0
19/03:50pm 28.5 26.8 11.2 34 10.2 E 11 24 6 13 1006.3 - 0.0
19/03:40pm 27.6 24.2 11.2 36 9.7 E 20 32 11 17 1006.8 - 0.0
19/03:30pm 27.6 24.1 10.3 34 10.0 ESE 19 26 10 14 1006.9 - 0.0
19/03:20pm 28.4 25.2 11.2 34 10.2 E 19 30 10 16 1007.1 - 0.0
19/03:10pm 28.0 26.3 11.3 35 9.9 ENE 11 17 6 9 1007.6 - 0.0
19/03:00pm 27.8 26.1 11.3 35 9.7 E 11 20 6 11 1007.7 - 0.0
19/02:50pm 26.7 23.7 11.8 39 8.8 E 19 20 10 11 1008.0 - 0.0
19/02:40pm 27.4 24.6 11.4 37 9.4 E 17 24 9 13 1008.0 - 0.0
19/02:30pm 27.2 24.9 10.3 34 9.8 E 13 19 7 10 1008.4 - 0.0
19/02:20pm 27.2 24.5 9.0 31 10.3 ENE 13 20 7 11 1008.6 - 0.0
19/02:10pm 26.3 23.9 9.9 35 9.4 ESE 13 17 7 9 1008.8 - 0.0
19/02:00pm 26.1 24.3 10.8 38 8.9 NE 11 19 6 10 1008.9 - 0.0
19/01:50pm 26.4 23.2 10.1 36 9.4 E 17 22 9 12 1009.1 - 0.0
19/01:40pm 27.0 24.7 10.5 35 9.6 ENE 13 19 7 10 1009.3 - 0.0
19/01:30pm 26.7 24.6 11.3 38 9.1 E 13 17 7 9 1009.5 - 0.0
19/01:20pm 25.1 23.9 11.5 42 8.0 E 9 19 5 10 1009.7 - 0.0
19/01:10pm 25.3 22.8 11.2 41 8.2 ESE 15 22 8 12 1009.8 - 0.0
19/01:00pm 25.4 22.9 12.3 44 7.8 E 17 20 9 11 1010.1 - 0.0
19/12:50pm 25.1 23.2 12.9 46 7.3 ENE 15 22 8 12 1010.3 - 0.0
19/12:40pm 24.5 21.8 12.8 48 7.0 E 19 22 10 12 1010.4 - 0.0
19/12:30pm 24.5 23.5 13.3 49 6.7 E 11 20 6 11 1010.6 - 0.0
19/12:20pm 24.8 23.8 13.3 48 6.9 E 11 15 6 8 1010.8 - 0.0
19/12:10pm 23.9 23.4 12.8 49 6.6 ENE 7 13 4 7 1010.9 - 0.0
19/12:00pm 23.3 22.0 13.6 54 5.8 ESE 13 17 7 9 1010.9 - 0.0
19/11:50am 22.5 21.6 13.6 57 5.3 E 11 15 6 8 1011.1 - 0.0
19/11:40am 22.8 22.2 13.4 55 5.6 SE 9 17 5 9 1011.2 - 0.0
19/11:30am 22.8 21.3 13.1 54 5.8 ESE 13 15 7 8 1011.2 - 0.0
19/11:20am 21.4 20.0 13.5 60 4.7 SE 13 15 7 8 1011.4 - 0.0
19/11:10am 21.9 21.3 13.5 59 5.0 ESE 9 15 5 8 1011.4 - 0.0
19/11:00am 20.5 19.2 13.7 65 4.0 SE 13 15 7 8 1011.6 - 0.0
19/10:50am 20.8 19.9 13.7 64 4.2 SE 11 15 6 8 1011.6 - 0.0
19/10:40am 20.2 19.0 13.9 67 3.8 SSE 13 15 7 8 1011.8 - 0.0
19/10:30am 20.2 18.1 13.6 66 3.9 SSE 17 19 9 10 1011.7 - 0.0
19/10:20am 19.4 17.3 13.7 69 3.4 SSE 17 20 9 11 1011.7 - 0.0
19/10:10am 19.2 16.8 13.9 71 3.1 SE 19 20 10 11 1011.9 - 0.0
19/10:00am 19.3 16.9 13.9 71 3.2 SE 19 22 10 12 1011.9 - 0.0
19/09:50am 18.9 16.4 13.6 71 3.1 SE 19 22 10 12 1011.9 - 0.0
19/09:40am 18.9 15.8 13.5 71 3.2 ESE 22 26 12 14 1012.0 - 0.0
19/09:30am 18.6 14.7 13.2 71 3.2 ESE 26 30 14 16 1011.5 - 0.0
19/09:20am 18.0 14.6 13.6 75 2.6 SE 24 26 13 14 1011.6 - 0.0
19/09:10am 18.1 14.5 13.2 73 2.9 SE 24 28 13 15 1011.8 - 0.0
19/09:00am 17.6 14.5 13.3 76 2.5 ESE 22 26 12 14 1011.9 - 0.0
19/08:50am 17.2 14.1 13.4 78 2.2 ESE 22 26 12 14 1012.1 - 0.0
19/08:40am 16.9 13.5 13.6 81 1.9 ESE 24 26 13 14 1012.1 - 0.0
19/08:30am 16.7 13.2 13.3 80 2.0 SE 24 26 13 14 1011.8 - 0.0
19/08:20am 16.5 13.0 13.4 82 1.8 SE 24 26 13 14 1012.1 - 0.0
19/08:10am 16.4 13.3 13.3 82 1.8 SE 22 24 12 13 1012.0 - 0.0
19/08:00am 15.7 12.6 13.3 86 1.4 SE 22 22 12 12 1012.0 - 0.0
19/07:50am 15.5 12.9 13.2 86 1.3 SE 19 20 10 11 1011.9 - 0.0
19/07:40am 15.3 13.0 13.1 87 1.3 SE 17 19 9 10 1012.1 - 0.0
19/07:30am 15.1 12.4 13.0 87 1.2 SSE 19 20 10 11 1012.0 - 0.0
19/07:20am 15.0 12.3 12.9 87 1.2 SE 19 20 10 11 1012.0 - 0.0
19/07:10am 14.9 12.2 12.9 88 1.1 SSE 19 19 10 10 1011.9 - 0.0
19/07:00am 14.9 12.2 12.8 87 1.2 SE 19 20 10 11 1011.7 - 0.0
19/06:50am 14.7 11.8 12.9 89 1.0 SSE 20 22 11 12 1011.7 - 0.0
19/06:40am 14.6 11.7 12.9 89 1.0 SE 20 22 11 12 1011.6 - 0.0
19/06:30am 14.6 11.3 12.9 89 1.0 SE 22 24 12 13 1011.5 - 0.0
19/06:20am 14.5 10.8 12.8 89 1.0 SE 24 26 13 14 1011.4 - 0.0
19/06:10am 14.5 10.4 12.6 88 1.1 SE 26 26 14 14 1011.2 - 0.0
19/06:00am 14.4 10.7 12.6 89 1.0 ESE 24 26 13 14 1011.1 - 0.0
19/05:50am 14.4 10.2 12.5 88 1.1 SE 26 28 14 15 1010.9 - 0.0
19/05:40am 14.4 10.2 12.5 88 1.1 SE 26 28 14 15 1010.8 - 0.0
19/05:30am 14.6 10.8 12.5 87 1.2 SE 24 26 13 14 1010.9 - 0.0
19/05:20am 14.5 11.1 12.6 88 1.1 SE 22 24 12 13 1011.0 - 0.0
19/05:10am 14.4 11.4 12.5 88 1.1 SE 20 22 11 12 1011.0 - 0.0
19/05:00am 14.6 11.2 12.6 88 1.1 SE 22 22 12 12 1010.9 - 0.0
19/04:50am 14.6 11.6 12.5 87 1.2 SSE 20 20 11 11 1010.9 - 0.0
19/04:40am 14.6 12.2 12.5 87 1.2 SE 17 17 9 9 1011.1 - 0.0
19/04:30am 14.7 11.9 12.5 87 1.2 SE 19 20 10 11 1011.1 - 0.0
19/04:20am 14.5 11.6 12.4 87 1.2 SE 19 19 10 10 1011.1 - 0.0
19/04:10am 14.4 11.6 12.5 88 1.1 SE 19 20 10 11 1011.1 - 0.0
19/04:00am 14.4 11.4 12.4 88 1.1 SE 20 22 11 12 1011.2 - 0.0
19/03:50am 14.2 10.3 12.2 88 1.1 SE 24 26 13 14 1011.1 - 0.0
19/03:40am 14.4 10.6 12.3 87 1.2 SE 24 24 13 13 1011.1 - 0.0
19/03:30am 14.5 11.6 12.3 87 1.2 SE 19 22 10 12 1011.3 - 0.0
19/03:20am 14.6 11.7 12.3 86 1.3 SE 19 19 10 10 1011.5 - 0.0
19/03:10am 14.8 11.9 12.3 85 1.4 ESE 19 19 10 10 1011.4 - 0.0
19/03:00am 15.1 13.0 12.5 84 1.5 ESE 15 17 8 9 1011.6 - 0.0
19/02:50am 15.3 13.2 12.5 83 1.6 ESE 15 15 8 8 1011.7 - 0.0
19/02:40am 15.3 13.2 12.4 83 1.6 SE 15 17 8 9 1011.7 - 0.0
19/02:30am 15.4 12.9 12.4 82 1.7 SE 17 17 9 9 1011.7 - 0.0
19/02:20am 15.3 12.4 12.4 83 1.6 SSE 19 19 10 10 1011.6 - 0.0
19/02:10am 15.3 12.4 12.3 82 1.7 SE 19 19 10 10 1011.6 - 0.0
19/02:00am 15.2 12.1 12.3 83 1.6 SE 20 20 11 11 1011.6 - 0.0
19/01:50am 15.2 11.7 12.2 82 1.7 ESE 22 24 12 13 1011.7 - 0.0
19/01:40am 15.5 10.9 12.2 81 1.9 ESE 28 28 15 15 1011.6 - 0.0
19/01:30am 15.6 11.0 12.2 80 1.9 ESE 28 30 15 16 1011.6 - 0.0
19/01:20am 15.6 10.9 12.1 80 2.0 ESE 28 30 15 16 1011.7 - 0.0
19/01:10am 15.5 10.8 12.0 79 2.0 SE 28 28 15 15 1011.8 - 0.0
19/01:00am 15.5 11.2 11.9 79 2.0 SE 26 26 14 14 1011.9 - 0.0
19/12:50am 15.5 11.2 12.0 79 2.0 SE 26 28 14 15 1012.0 - 0.0
19/12:40am 15.6 10.5 12.0 79 2.0 SE 30 32 16 17 1012.0 - 0.0
19/12:30am 15.7 10.0 11.9 78 2.1 SE 33 35 18 19 1012.0 - 0.0
19/12:20am 15.7 9.7 12.0 78 2.1 SE 35 37 19 20 1011.8 - 0.0
19/12:10am 15.7 9.6 11.9 78 2.1 SE 35 37 19 20 1012.1 - 0.0
19/12:00am 15.7 9.7 12.0 78 2.1 SE 35 37 19 20 1012.4 - 0.0
 
Date/Time
EDT
Temp
°C
App
Temp
°C
Dew
Point
°C
Rel
Hum
%
Delta-T
°C
Wind Press
QNH
hPa
Press
MSL
hPa
Rain since
9am
mm
Dir  Spd
km/h
Gust
km/h
Spd
kts
Gust
kts
18/11:50pm 15.7 9.7 12.0 78 2.1 SE 35 37 19 20 1012.4 - 0.0
18/11:40pm 15.7 9.7 12.0 78 2.1 SE 35 35 19 19 1012.5 - 0.0
18/11:30pm 15.8 10.2 12.1 78 2.1 SE 33 35 18 19 1012.7 - 0.0
18/11:20pm 15.9 10.5 12.1 78 2.2 SE 32 33 17 18 1012.8 - 0.0
18/11:10pm 16.1 10.7 12.2 77 2.2 SE 32 33 17 18 1013.0 - 0.0
18/11:00pm 16.1 10.7 12.2 77 2.2 SE 32 33 17 18 1013.0 - 0.0
18/10:50pm 16.3 10.3 12.2 77 2.3 SE 35 37 19 20 1013.0 - 0.0
18/10:40pm 16.3 10.7 12.1 76 2.4 SE 33 35 18 19 1013.1 - 0.0
18/10:30pm 16.3 10.7 12.1 76 2.4 SE 33 35 18 19 1013.1 - 0.0
18/10:20pm 16.3 10.7 12.2 77 2.3 SE 33 37 18 20 1013.2 - 0.0
18/10:10pm 16.3 10.8 12.3 77 2.3 SE 33 35 18 19 1013.0 - 0.0
18/10:00pm 16.5 10.6 12.4 77 2.3 ESE 35 37 19 20 1013.2 - 0.0
18/09:50pm 16.6 9.9 12.4 76 2.4 ESE 39 41 21 22 1013.0 - 0.0
18/09:40pm 16.6 9.2 12.4 76 2.4 ESE 43 43 23 23 1012.7 - 0.0
18/09:30pm 16.7 10.1 12.5 76 2.4 ESE 39 43 21 23 1012.7 - 0.0
18/09:20pm 16.7 10.8 12.4 76 2.5 ESE 35 37 19 20 1012.6 - 0.0
18/09:10pm 16.8 10.6 12.5 76 2.5 E 37 41 20 22 1012.4 - 0.0
18/09:00pm 17.0 10.8 12.5 75 2.6 E 37 39 20 21 1012.3 - 0.0
18/08:50pm 17.1 10.5 12.5 74 2.6 E 39 43 21 23 1012.2 - 0.0
18/08:40pm 17.2 10.6 12.5 74 2.7 E 39 43 21 23 1012.2 - 0.0
18/08:30pm 17.3 11.8 12.6 74 2.7 E 33 35 18 19 1012.3 - 0.0
18/08:20pm 17.5 10.9 12.7 73 2.8 E 39 41 21 22 1012.1 - 0.0
18/08:10pm 17.8 11.6 12.7 72 2.9 E 37 39 20 21 1012.0 - 0.0
18/08:00pm 18.0 12.2 12.6 70 3.1 E 35 39 19 21 1011.9 - 0.0
18/07:50pm 18.3 12.1 12.6 69 3.3 E 37 39 20 21 1011.8 - 0.0
18/07:40pm 18.6 13.2 12.7 68 3.4 E 33 37 18 20 1011.9 - 0.0
18/07:30pm 18.7 12.9 12.6 67 3.5 E 35 41 19 22 1011.8 - 0.0
18/07:20pm 18.9 12.3 12.5 66 3.7 E 39 44 21 24 1011.5 - 0.0
18/07:10pm 19.1 12.1 12.6 66 3.8 E 41 43 22 23 1011.4 - 0.0
18/07:00pm 19.4 12.4 12.6 64 4.0 E 41 43 22 23 1011.1 - 0.0
18/06:50pm 19.7 12.7 12.5 63 4.2 E 41 43 22 23 1011.3 - 0.0
18/06:40pm 19.7 12.7 12.4 62 4.2 E 41 43 22 23 1010.9 - 0.0
18/06:30pm 20.1 12.7 12.3 61 4.5 E 43 44 23 24 1011.0 - 0.0
18/06:20pm 20.2 12.6 12.5 61 4.5 E 44 46 24 25 1010.8 - 0.0
18/06:10pm 20.4 12.9 12.6 61 4.6 E 44 48 24 26 1010.5 - 0.0
18/06:00pm 20.8 13.9 12.7 59 4.7 E 41 44 22 24 1010.9 - 0.0
18/05:50pm 21.0 13.7 12.8 59 4.8 E 43 44 23 24 1010.6 - 0.0
18/05:40pm 20.9 13.3 12.4 58 5.0 E 44 48 24 26 1010.6 - 0.0
18/05:30pm 21.2 13.7 12.6 58 5.0 E 44 46 24 25 1010.8 - 0.0
18/05:20pm 21.4 13.5 12.7 57 5.1 E 46 52 25 28 1010.5 - 0.0
18/05:10pm 21.4 12.7 12.4 56 5.3 E 50 52 27 28 1010.3 - 0.0
18/05:00pm 21.7 13.8 12.6 56 5.3 E 46 52 25 28 1010.6 - 0.0
18/04:50pm 22.2 13.8 12.4 53 5.8 E 48 54 26 29 1010.9 - 0.0
18/04:40pm 22.1 13.7 12.4 54 5.7 E 48 52 26 28 1010.6 - 0.0
18/04:30pm 22.5 14.2 12.6 53 5.8 E 48 54 26 29 1010.6 - 0.0
18/04:20pm 22.6 13.9 12.5 53 5.9 E 50 54 27 29 1010.6 - 0.0
18/04:10pm 23.2 13.7 12.3 50 6.4 E 54 57 29 31 1010.8 - 0.0
18/04:00pm 23.9 15.2 12.7 49 6.7 E 50 56 27 30 1009.8 - 0.0
18/03:50pm 24.2 16.0 11.7 45 7.3 E 46 48 25 26 1010.3 - 0.0
18/03:40pm 24.9 18.4 11.7 43 7.7 E 37 44 20 24 1010.9 - 0.0
18/03:30pm 25.1 18.3 11.9 43 7.8 E 39 46 21 25 1010.7 - 0.0
18/03:20pm 24.9 18.7 11.3 42 7.9 - 35 43 19 23 1011.0 - 0.0
18/03:10pm 24.9 19.2 11.0 41 8.1 ESE 32 37 17 20 1011.2 - 0.0
18/03:00pm 23.9 18.0 11.1 44 7.4 ESE 33 41 18 22 1011.0 - 0.0
18/02:50pm 23.4 17.0 10.7 44 7.3 ESE 35 39 19 21 1011.2 - 0.0
18/02:40pm 23.7 17.1 11.3 45 7.2 ESE 37 43 20 23 1011.3 - 0.0
18/02:30pm 23.6 17.3 10.9 44 7.3 ESE 35 43 19 23 1011.7 - 0.0
18/02:20pm 23.6 17.8 10.8 44 7.4 ESE 32 41 17 22 1012.0 - 0.0
18/02:10pm 23.7 17.3 10.7 44 7.5 E 35 43 19 23 1012.0 - 0.0
18/02:00pm 23.1 17.6 11.7 48 6.6 ESE 32 39 17 21 1012.2 - 0.0
18/01:50pm 22.9 16.2 11.0 47 6.8 ESE 37 43 20 23 1012.1 - 0.0
18/01:40pm 23.4 16.7 10.9 45 7.2 ESE 37 50 20 27 1011.7 - 0.0
18/01:30pm 22.5 15.4 11.0 48 6.6 ESE 39 44 21 24 1011.9 - 0.0
18/01:20pm 22.6 15.7 11.5 49 6.4 ESE 39 43 21 23 1012.4 - 0.0
18/01:10pm 23.0 16.6 12.0 50 6.4 ESE 37 41 20 22 1012.4 - 0.0
18/01:00pm 22.8 17.1 11.9 50 6.4 ESE 33 41 18 22 1012.6 - 0.0
18/12:50pm 21.9 16.2 11.9 53 5.8 ESE 33 39 18 21 1012.9 - 0.0
18/12:40pm 21.7 16.2 12.3 55 5.5 ESE 33 41 18 22 1013.2 - 0.0
18/12:30pm 21.7 15.6 11.9 53 5.7 ESE 35 41 19 22 1013.4 - 0.0
18/12:20pm 21.5 15.8 11.9 54 5.6 ESE 33 43 18 23 1013.3 - 0.0
18/12:10pm 20.9 14.8 11.9 56 5.2 ESE 35 41 19 22 1013.0 - 0.0
18/12:00pm 20.8 13.5 11.5 55 5.3 ESE 41 48 22 26 1013.2 - 0.0
18/11:50am 21.1 14.0 12.1 56 5.2 ESE 41 44 22 24 1013.3 - 0.0
18/11:40am 19.7 13.3 12.0 61 4.4 ESE 37 43 20 23 1013.3 - 0.0
18/11:30am 20.2 13.4 12.0 59 4.7 ESE 39 44 21 24 1013.5 - 0.0
18/11:20am 19.8 12.6 11.9 60 4.5 ESE 41 48 22 26 1013.4 - 0.0
18/11:10am 19.8 12.8 12.4 62 4.3 ESE 41 46 22 25 1013.9 - 0.0
18/11:00am 19.7 12.9 12.1 61 4.4 SE 39 44 21 24 1013.8 - 0.0
18/10:50am 19.1 12.8 12.3 64 3.9 SE 37 43 20 23 1013.9 - 0.0
18/10:40am 18.5 11.3 11.9 65 3.8 SE 41 44 22 24 1013.7 - 0.0
18/10:30am 18.5 11.4 12.3 67 3.6 SSE 41 46 22 25 1013.9 - 0.0
18/10:20am 18.3 11.9 12.0 66 3.6 SSE 37 41 20 22 1014.3 - 0.0
18/10:10am 17.8 11.0 12.1 69 3.3 SSE 39 43 21 23 1014.2 - 0.0
18/10:00am 18.2 12.0 12.6 70 3.2 SE 37 41 20 22 1014.6 - 0.0
18/09:50am 18.6 11.1 12.1 66 3.7 ESE 43 48 23 26 1014.2 - 0.0
18/09:40am 17.8 9.6 11.8 68 3.4 ESE 46 50 25 27 1013.8 - 0.0
18/09:30am 17.5 10.1 12.3 71 3.0 ESE 43 44 23 24 1014.3 - 0.0
18/09:20am 16.9 9.2 12.0 73 2.8 SE 44 50 24 27 1014.1 - 0.0
18/09:10am 16.7 9.0 12.2 75 2.6 SE 44 46 24 25 1014.2 - 0.0
18/09:00am 16.8 9.4 12.3 75 2.6 SE 43 48 23 26 1014.1 - 0.0
18/08:50am 16.4 7.6 12.2 76 2.4 SE 50 52 27 28 1013.8 - 0.0
18/08:40am 16.4 8.7 12.2 76 2.4 SE 44 52 24 28 1013.6 - 0.0
18/08:30am 16.3 8.2 12.1 76 2.4 SE 46 48 25 26 1013.9 - 0.0
18/08:20am 16.3 8.2 12.2 77 2.3 SE 46 50 25 27 1013.8 - 0.0
18/08:10am 16.3 8.2 12.2 77 2.3 ESE 46 50 25 27 1013.8 - 0.0
18/08:00am 16.3 8.2 12.2 77 2.3 ESE 46 48 25 26 1013.3 - 0.0
18/07:50am 16.3 8.2 12.1 76 2.4 SE 46 54 25 29 1013.6 - 0.0
18/07:40am 16.2 7.7 12.1 76 2.3 SE 48 52 26 28 1013.2 - 0.0
18/07:30am 16.3 7.1 12.1 76 2.4 SE 52 57 28 31 1013.0 - 0.0
18/07:20am 16.3 7.4 12.0 75 2.4 SE 50 54 27 29 1013.0 - 0.0
18/07:10am 16.3 7.8 12.0 75 2.4 SE 48 52 26 28 1012.8 - 0.0
18/07:00am 16.2 7.7 12.1 76 2.3 SE 48 52 26 28 1012.7 - 0.0
18/06:50am 16.2 7.4 12.2 77 2.3 SE 50 54 27 29 1012.7 - 0.0
18/06:40am 16.2 8.1 12.1 76 2.3 SE 46 52 25 28 1012.6 - 0.0
18/06:30am 16.2 7.8 12.2 77 2.3 SE 48 52 26 28 1012.4 - 0.0
18/06:20am 16.2 8.5 12.2 77 2.3 SE 44 46 24 25 1012.4 - 0.0
18/06:10am 16.2 7.8 12.2 77 2.3 SE 48 50 26 27 1012.7 - 0.0
18/06:00am 16.3 7.9 12.3 77 2.3 SE 48 50 26 27 1012.2 - 0.0
18/05:50am 16.3 7.9 12.3 77 2.3 SE 48 52 26 28 1011.9 - 0.0
18/05:40am 16.3 7.5 12.3 77 2.3 SE 50 54 27 29 1012.2 - 0.0
18/05:30am 16.3 7.5 12.3 77 2.3 SE 50 52 27 28 1012.0 - 0.0
18/05:20am 16.3 7.5 12.3 77 2.3 SE 50 52 27 28 1011.9 - 0.0
18/05:10am 16.3 7.9 12.4 78 2.2 SE 48 50 26 27 1011.9 - 0.0
18/05:00am 16.4 8.4 12.4 77 2.3 SE 46 48 25 26 1012.1 - 0.0
18/04:50am 16.4 8.4 12.4 77 2.3 SE 46 50 25 27 1012.4 - 0.0
18/04:40am 16.4 9.0 12.5 78 2.2 SE 43 48 23 26 1012.5 - 0.0
18/04:30am 16.4 8.9 12.6 78 2.2 SE 44 50 24 27 1012.8 - 0.0
18/04:20am 16.4 9.0 12.6 78 2.2 SE 43 44 23 24 1012.7 - 0.0

Latest Capital City Observations: Canberra | Sydney | Melbourne | Brisbane | Adelaide | Perth | Hobart | Darwin

Other formats

Comma delimited format used in spreadsheet applications
http://www.bom.gov.au/fwo/IDN60903/IDN60903.99763.axf

JavaScript Object Notation format (JSON) in row-major order
http://www.bom.gov.au/fwo/IDN60903/IDN60903.99763.json

Data quality

Most of these data are generated automatically and are frequently updated. Quality checks on data are not normally performed. It is possible for incorrect values to appear. Refer to information at About Latest Weather Observations and please check the disclaimer before using these data.